Terminal Aerodrome Forecast
Issued by NWS

Home | Current Version | Previous Version | Text Only | Print | Product List | Glossary On
Versions: 1 2 3 4 5 6 7 8 9 10 11 12 13 14 15 16
000
FTUS45 KGJT 240100 AAB
TAFRIL
TAF AMD
KRIL 240100Z 2401/2424 35011G28KT P6SM -TSRA FEW014 FEW040CB OVC090
      TEMPO 2401/2403 VRB08KT 4SM -TSRA BKN050CB
     FM240300 18006KT P6SM VCTS SCT060CB OVC090
      TEMPO 2403/2406 VRB10G20KT -TSRA BKN060CB
     FM240600 14006KT P6SM OVC090
      TEMPO 2406/2408 4SM -TSRA OVC040CB
     FM240800 14004KT P6SM VCTS BKN100CB
     FM241000 VRB03KT P6SM BKN110
     FM241400 VRB03KT P6SM SCT120
     FM242100 28007KT P6SM FEW120 SCT250=

USA.gov is the U.S. government's official web portal to all federal, state and local government web resources and services.